Weather at Lubumbashi International Airport

Public forecast

Using degrees Celsius for public forecast. Weather courtesy of forecast.io.

Current aviation weather report (METAR) for Lubumbashi International Airport

Report is more than 6 hours old.

2022/11/14 15:00 (retrieved 2 years ago)

FZQA 141500Z 16005KT 9999 TS SCT020 FEW027CB BKN100 21/18 Q1017 NOSIG

Aviation forecast (TAF) for Lubumbashi International Airport

Forecast is more than 12 hours old.

2023/02/22 12:00 (retrieved 1 year ago)

TAF FZQA 221100Z 2212/2318 09010KT 9999 BKN025 BECMG 2213/2217 SCT026 FEW028CB TEMPO 2216/2220 TS BECMG 2222/2300 00000KT FEW010